sensor_id;sensor_type;location;lat;lon;timestamp;P1;durP1;ratioP1;P2;durP2;ratioP2
45784;SDS011;31489;51.404;5.474;2022-07-22T00:00:05;6.40;;;2.90;;
45784;SDS011;31489;51.404;5.474;2022-07-22T00:02:33;3.80;;;2.10;;
45784;SDS011;31489;51.404;5.474;2022-07-22T00:04:59;6.75;;;3.25;;
45784;SDS011;31489;51.404;5.474;2022-07-22T00:07:25;9.35;;;3.15;;
45784;SDS011;31489;51.404;5.474;2022-07-22T00:09:51;5.55;;;2.55;;
45784;SDS011;31489;51.404;5.474;2022-07-22T00:12:20;5.13;;;2.35;;
45784;SDS011;31489;51.404;5.474;2022-07-22T00:14:45;5.93;;;2.53;;
45784;SDS011;31489;51.404;5.474;2022-07-22T00:17:13;6.78;;;2.70;;
45784;SDS011;31489;51.404;5.474;2022-07-22T00:19:39;5.18;;;2.25;;
45784;SDS011;31489;51.404;5.474;2022-07-22T00:22:05;5.55;;;2.22;;
45784;SDS011;31489;51.404;5.474;2022-07-22T00:24:31;6.13;;;2.35;;
45784;SDS011;31489;51.404;5.474;2022-07-22T00:26:57;5.47;;;2.92;;
45784;SDS011;31489;51.404;5.474;2022-07-22T00:29:22;5.60;;;2.28;;
45784;SDS011;31489;51.404;5.474;2022-07-22T00:31:48;6.15;;;2.53;;
45784;SDS011;31489;51.404;5.474;2022-07-22T00:34:14;6.85;;;2.42;;
45784;SDS011;31489;51.404;5.474;2022-07-22T00:36:40;4.93;;;2.25;;
45784;SDS011;31489;51.404;5.474;2022-07-22T00:39:05;6.50;;;2.67;;
45784;SDS011;31489;51.404;5.474;2022-07-22T00:41:31;6.60;;;2.40;;
45784;SDS011;31489;51.404;5.474;2022-07-22T00:43:58;4.50;;;1.95;;
45784;SDS011;31489;51.404;5.474;2022-07-22T00:46:31;8.38;;;2.90;;
45784;SDS011;31489;51.404;5.474;2022-07-22T00:48:58;4.05;;;2.15;;
45784;SDS011;31489;51.404;5.474;2022-07-22T00:51:25;4.72;;;2.17;;
45784;SDS011;31489;51.404;5.474;2022-07-22T00:53:53;6.35;;;2.83;;
45784;SDS011;31489;51.404;5.474;2022-07-22T00:56:19;6.97;;;2.90;;
45784;SDS011;31489;51.404;5.474;2022-07-22T00:58:47;6.53;;;2.50;;
45784;SDS011;31489;51.404;5.474;2022-07-22T01:01:13;5.15;;;2.22;;
45784;SDS011;31489;51.404;5.474;2022-07-22T01:03:39;4.93;;;2.33;;
45784;SDS011;31489;51.404;5.474;2022-07-22T01:06:06;7.72;;;2.85;;
45784;SDS011;31489;51.404;5.474;2022-07-22T01:08:32;6.22;;;3.00;;
45784;SDS011;31489;51.404;5.474;2022-07-22T01:11:11;6.57;;;2.85;;
45784;SDS011;31489;51.404;5.474;2022-07-22T01:13:41;4.88;;;2.58;;
45784;SDS011;31489;51.404;5.474;2022-07-22T01:16:08;4.03;;;2.28;;
45784;SDS011;31489;51.404;5.474;2022-07-22T01:18:35;6.95;;;2.83;;
45784;SDS011;31489;51.404;5.474;2022-07-22T01:21:02;6.93;;;2.70;;
45784;SDS011;31489;51.404;5.474;2022-07-22T01:23:28;7.18;;;3.05;;
45784;SDS011;31489;51.404;5.474;2022-07-22T01:25:54;10.93;;;2.80;;
45784;SDS011;31489;51.404;5.474;2022-07-22T01:28:19;6.82;;;2.50;;
45784;SDS011;31489;51.404;5.474;2022-07-22T01:30:46;9.45;;;2.70;;
45784;SDS011;31489;51.404;5.474;2022-07-22T01:33:12;5.32;;;2.78;;
45784;SDS011;31489;51.404;5.474;2022-07-22T01:35:44;5.57;;;2.42;;
45784;SDS011;31489;51.404;5.474;2022-07-22T01:38:11;7.53;;;2.35;;
45784;SDS011;31489;51.404;5.474;2022-07-22T01:40:37;5.50;;;2.78;;
45784;SDS011;31489;51.404;5.474;2022-07-22T01:43:03;7.70;;;2.80;;
45784;SDS011;31489;51.404;5.474;2022-07-22T01:45:29;4.85;;;2.50;;
45784;SDS011;31489;51.404;5.474;2022-07-22T01:47:55;5.85;;;2.85;;
45784;SDS011;31489;51.404;5.474;2022-07-22T01:50:21;6.68;;;2.80;;
45784;SDS011;31489;51.404;5.474;2022-07-22T01:52:47;8.77;;;3.10;;
45784;SDS011;31489;51.404;5.474;2022-07-22T01:55:12;4.95;;;2.38;;
45784;SDS011;31489;51.404;5.474;2022-07-22T01:57:39;10.00;;;2.83;;
45784;SDS011;31489;51.404;5.474;2022-07-22T02:00:06;4.53;;;2.67;;
45784;SDS011;31489;51.404;5.474;2022-07-22T02:02:33;7.35;;;2.90;;
45784;SDS011;31489;51.404;5.474;2022-07-22T02:04:59;6.50;;;2.90;;
45784;SDS011;31489;51.404;5.474;2022-07-22T02:07:25;8.50;;;3.20;;
45784;SDS011;31489;51.404;5.474;2022-07-22T02:09:52;8.38;;;3.22;;
45784;SDS011;31489;51.404;5.474;2022-07-22T02:12:18;6.78;;;2.90;;
45784;SDS011;31489;51.404;5.474;2022-07-22T02:14:44;8.40;;;2.95;;
45784;SDS011;31489;51.404;5.474;2022-07-22T02:17:10;5.95;;;2.63;;
45784;SDS011;31489;51.404;5.474;2022-07-22T02:19:37;5.47;;;2.65;;
45784;SDS011;31489;51.404;5.474;2022-07-22T02:22:04;5.60;;;2.80;;
45784;SDS011;31489;51.404;5.474;2022-07-22T02:24:30;5.57;;;2.42;;
45784;SDS011;31489;51.404;5.474;2022-07-22T02:26:55;5.50;;;2.60;;
45784;SDS011;31489;51.404;5.474;2022-07-22T02:29:24;7.30;;;3.13;;
45784;SDS011;31489;51.404;5.474;2022-07-22T02:31:58;9.15;;;2.90;;
45784;SDS011;31489;51.404;5.474;2022-07-22T02:34:24;7.63;;;3.20;;
45784;SDS011;31489;51.404;5.474;2022-07-22T02:36:50;7.53;;;2.80;;
45784;SDS011;31489;51.404;5.474;2022-07-22T02:39:16;7.93;;;2.70;;
45784;SDS011;31489;51.404;5.474;2022-07-22T02:41:43;12.15;;;3.47;;
45784;SDS011;31489;51.404;5.474;2022-07-22T02:44:08;10.60;;;3.13;;
45784;SDS011;31489;51.404;5.474;2022-07-22T02:46:34;11.93;;;3.50;;
45784;SDS011;31489;51.404;5.474;2022-07-22T02:49:00;7.20;;;3.33;;
45784;SDS011;31489;51.404;5.474;2022-07-22T02:51:26;6.18;;;3.17;;
45784;SDS011;31489;51.404;5.474;2022-07-22T02:53:52;7.82;;;3.42;;
45784;SDS011;31489;51.404;5.474;2022-07-22T02:56:17;6.47;;;3.38;;
45784;SDS011;31489;51.404;5.474;2022-07-22T02:58:45;5.20;;;2.95;;
45784;SDS011;31489;51.404;5.474;2022-07-22T03:01:17;4.57;;;2.90;;
45784;SDS011;31489;51.404;5.474;2022-07-22T03:03:44;7.13;;;3.50;;
45784;SDS011;31489;51.404;5.474;2022-07-22T03:06:09;6.25;;;3.70;;
45784;SDS011;31489;51.404;5.474;2022-07-22T03:08:35;8.50;;;3.40;;
45784;SDS011;31489;51.404;5.474;2022-07-22T03:11:02;8.48;;;3.45;;
45784;SDS011;31489;51.404;5.474;2022-07-22T03:13:28;6.35;;;3.00;;
45784;SDS011;31489;51.404;5.474;2022-07-22T03:15:54;6.03;;;3.15;;
45784;SDS011;31489;51.404;5.474;2022-07-22T03:18:19;9.20;;;3.80;;
45784;SDS011;31489;51.404;5.474;2022-07-22T03:20:45;7.07;;;3.45;;
45784;SDS011;31489;51.404;5.474;2022-07-22T03:23:11;6.25;;;2.75;;
45784;SDS011;31489;51.404;5.474;2022-07-22T03:25:37;7.43;;;2.88;;
45784;SDS011;31489;51.404;5.474;2022-07-22T03:28:04;8.18;;;3.03;;
45784;SDS011;31489;51.404;5.474;2022-07-22T03:30:30;6.70;;;3.28;;
45784;SDS011;31489;51.404;5.474;2022-07-22T03:32:55;7.45;;;3.28;;
45784;SDS011;31489;51.404;5.474;2022-07-22T03:35:21;5.47;;;2.80;;
45784;SDS011;31489;51.404;5.474;2022-07-22T03:37:47;10.13;;;3.20;;
45784;SDS011;31489;51.404;5.474;2022-07-22T03:40:12;8.88;;;3.40;;
45784;SDS011;31489;51.404;5.474;2022-07-22T03:42:38;7.50;;;3.42;;
45784;SDS011;31489;51.404;5.474;2022-07-22T03:45:04;5.30;;;3.08;;
45784;SDS011;31489;51.404;5.474;2022-07-22T03:47:30;6.78;;;3.42;;
45784;SDS011;31489;51.404;5.474;2022-07-22T03:49:56;8.52;;;3.53;;
45784;SDS011;31489;51.404;5.474;2022-07-22T03:52:23;5.97;;;3.33;;
45784;SDS011;31489;51.404;5.474;2022-07-22T03:54:50;10.27;;;4.03;;
45784;SDS011;31489;51.404;5.474;2022-07-22T03:57:16;8.43;;;4.22;;
45784;SDS011;31489;51.404;5.474;2022-07-22T03:59:42;8.20;;;4.15;;
45784;SDS011;31489;51.404;5.474;2022-07-22T04:02:07;8.15;;;3.53;;
45784;SDS011;31489;51.404;5.474;2022-07-22T04:04:33;7.72;;;4.25;;
45784;SDS011;31489;51.404;5.474;2022-07-22T04:06:59;9.27;;;4.18;;
45784;SDS011;31489;51.404;5.474;2022-07-22T04:09:25;9.30;;;4.30;;
45784;SDS011;31489;51.404;5.474;2022-07-22T04:11:51;10.73;;;4.82;;
45784;SDS011;31489;51.404;5.474;2022-07-22T04:14:18;16.17;;;4.85;;
45784;SDS011;31489;51.404;5.474;2022-07-22T04:16:45;10.32;;;4.30;;
45784;SDS011;31489;51.404;5.474;2022-07-22T04:19:11;7.47;;;5.03;;
45784;SDS011;31489;51.404;5.474;2022-07-22T04:21:37;9.13;;;5.60;;
45784;SDS011;31489;51.404;5.474;2022-07-22T04:24:03;11.82;;;5.57;;
45784;SDS011;31489;51.404;5.474;2022-07-22T04:26:30;9.07;;;5.22;;
45784;SDS011;31489;51.404;5.474;2022-07-22T04:28:56;9.10;;;5.60;;
45784;SDS011;31489;51.404;5.474;2022-07-22T04:31:21;12.52;;;5.25;;
45784;SDS011;31489;51.404;5.474;2022-07-22T04:33:47;9.43;;;4.85;;
45784;SDS011;31489;51.404;5.474;2022-07-22T04:36:13;7.45;;;5.47;;
45784;SDS011;31489;51.404;5.474;2022-07-22T04:38:38;10.20;;;5.70;;
45784;SDS011;31489;51.404;5.474;2022-07-22T04:41:04;8.63;;;5.57;;
45784;SDS011;31489;51.404;5.474;2022-07-22T04:43:31;9.73;;;6.18;;
45784;SDS011;31489;51.404;5.474;2022-07-22T04:45:56;9.18;;;5.70;;
45784;SDS011;31489;51.404;5.474;2022-07-22T04:48:22;8.80;;;6.20;;
45784;SDS011;31489;51.404;5.474;2022-07-22T04:50:48;9.48;;;5.88;;
45784;SDS011;31489;51.404;5.474;2022-07-22T04:53:13;9.60;;;6.18;;
45784;SDS011;31489;51.404;5.474;2022-07-22T04:55:39;14.55;;;6.47;;
45784;SDS011;31489;51.404;5.474;2022-07-22T04:58:05;11.50;;;6.22;;
45784;SDS011;31489;51.404;5.474;2022-07-22T05:00:30;11.32;;;6.10;;
45784;SDS011;31489;51.404;5.474;2022-07-22T05:02:56;13.30;;;5.63;;
45784;SDS011;31489;51.404;5.474;2022-07-22T05:05:25;9.68;;;5.50;;
45784;SDS011;31489;51.404;5.474;2022-07-22T05:07:50;9.02;;;5.55;;
45784;SDS011;31489;51.404;5.474;2022-07-22T05:10:16;11.63;;;5.20;;
45784;SDS011;31489;51.404;5.474;2022-07-22T05:12:42;9.95;;;5.97;;
45784;SDS011;31489;51.404;5.474;2022-07-22T05:15:08;8.48;;;5.97;;
45784;SDS011;31489;51.404;5.474;2022-07-22T05:17:34;11.38;;;6.20;;
45784;SDS011;31489;51.404;5.474;2022-07-22T05:20:03;11.35;;;6.15;;
45784;SDS011;31489;51.404;5.474;2022-07-22T05:22:29;10.93;;;6.25;;
45784;SDS011;31489;51.404;5.474;2022-07-22T05:24:55;10.13;;;5.60;;
45784;SDS011;31489;51.404;5.474;2022-07-22T05:27:21;7.47;;;5.93;;
45784;SDS011;31489;51.404;5.474;2022-07-22T05:29:47;12.98;;;6.38;;
45784;SDS011;31489;51.404;5.474;2022-07-22T05:32:13;9.52;;;6.10;;
45784;SDS011;31489;51.404;5.474;2022-07-22T05:34:39;13.32;;;5.88;;
45784;SDS011;31489;51.404;5.474;2022-07-22T05:37:05;10.77;;;6.03;;
45784;SDS011;31489;51.404;5.474;2022-07-22T05:39:31;9.25;;;6.28;;
45784;SDS011;31489;51.404;5.474;2022-07-22T05:41:56;10.73;;;6.28;;
45784;SDS011;31489;51.404;5.474;2022-07-22T05:44:22;13.65;;;6.57;;
45784;SDS011;31489;51.404;5.474;2022-07-22T05:46:47;10.98;;;5.43;;
45784;SDS011;31489;51.404;5.474;2022-07-22T05:49:13;12.35;;;6.10;;
45784;SDS011;31489;51.404;5.474;2022-07-22T05:51:38;9.55;;;6.10;;
45784;SDS011;31489;51.404;5.474;2022-07-22T05:54:04;11.65;;;6.78;;
45784;SDS011;31489;51.404;5.474;2022-07-22T05:56:30;14.77;;;6.03;;
45784;SDS011;31489;51.404;5.474;2022-07-22T05:58:56;12.00;;;5.50;;
45784;SDS011;31489;51.404;5.474;2022-07-22T06:01:22;11.40;;;5.75;;
45784;SDS011;31489;51.404;5.474;2022-07-22T06:03:48;8.98;;;5.35;;
45784;SDS011;31489;51.404;5.474;2022-07-22T06:06:13;7.10;;;4.90;;
45784;SDS011;31489;51.404;5.474;2022-07-22T06:08:39;12.15;;;5.28;;
45784;SDS011;31489;51.404;5.474;2022-07-22T06:11:05;9.18;;;5.43;;
45784;SDS011;31489;51.404;5.474;2022-07-22T06:13:31;12.52;;;6.15;;
45784;SDS011;31489;51.404;5.474;2022-07-22T06:15:58;11.30;;;5.57;;
45784;SDS011;31489;51.404;5.474;2022-07-22T06:18:24;8.65;;;4.70;;
45784;SDS011;31489;51.404;5.474;2022-07-22T06:20:50;10.40;;;4.88;;
45784;SDS011;31489;51.404;5.474;2022-07-22T06:23:15;8.63;;;4.40;;
45784;SDS011;31489;51.404;5.474;2022-07-22T06:25:41;8.77;;;4.70;;
45784;SDS011;31489;51.404;5.474;2022-07-22T06:28:07;10.00;;;4.20;;
45784;SDS011;31489;51.404;5.474;2022-07-22T06:30:33;10.38;;;4.40;;
45784;SDS011;31489;51.404;5.474;2022-07-22T06:32:59;9.48;;;4.60;;
45784;SDS011;31489;51.404;5.474;2022-07-22T06:35:25;6.97;;;4.65;;
45784;SDS011;31489;51.404;5.474;2022-07-22T06:37:51;11.45;;;3.92;;
45784;SDS011;31489;51.404;5.474;2022-07-22T06:40:17;13.55;;;3.55;;
45784;SDS011;31489;51.404;5.474;2022-07-22T06:42:42;5.40;;;3.28;;
45784;SDS011;31489;51.404;5.474;2022-07-22T06:45:08;8.82;;;3.30;;
45784;SDS011;31489;51.404;5.474;2022-07-22T06:47:34;4.75;;;2.50;;
45784;SDS011;31489;51.404;5.474;2022-07-22T06:50:04;5.78;;;1.85;;
45784;SDS011;31489;51.404;5.474;2022-07-22T06:52:31;4.18;;;2.20;;
45784;SDS011;31489;51.404;5.474;2022-07-22T06:54:56;8.10;;;2.35;;
45784;SDS011;31489;51.404;5.474;2022-07-22T06:57:22;4.07;;;2.00;;
45784;SDS011;31489;51.404;5.474;2022-07-22T06:59:48;4.82;;;1.80;;
45784;SDS011;31489;51.404;5.474;2022-07-22T07:02:15;2.85;;;1.50;;
45784;SDS011;31489;51.404;5.474;2022-07-22T07:04:44;2.30;;;1.40;;
45784;SDS011;31489;51.404;5.474;2022-07-22T07:07:13;3.50;;;1.58;;
45784;SDS011;31489;51.404;5.474;2022-07-22T07:09:38;2.47;;;1.38;;
45784;SDS011;31489;51.404;5.474;2022-07-22T07:12:04;2.40;;;1.58;;
45784;SDS011;31489;51.404;5.474;2022-07-22T07:14:31;4.00;;;1.73;;
45784;SDS011;31489;51.404;5.474;2022-07-22T07:16:57;3.72;;;1.48;;
45784;SDS011;31489;51.404;5.474;2022-07-22T07:19:23;1.95;;;1.20;;
45784;SDS011;31489;51.404;5.474;2022-07-22T07:21:48;6.70;;;1.67;;
45784;SDS011;31489;51.404;5.474;2022-07-22T07:24:14;3.60;;;1.55;;
45784;SDS011;31489;51.404;5.474;2022-07-22T07:26:40;3.05;;;1.40;;
45784;SDS011;31489;51.404;5.474;2022-07-22T07:29:06;3.65;;;1.25;;
45784;SDS011;31489;51.404;5.474;2022-07-22T07:31:31;2.65;;;1.33;;
45784;SDS011;31489;51.404;5.474;2022-07-22T07:33:57;1.30;;;1.20;;
45784;SDS011;31489;51.404;5.474;2022-07-22T07:36:24;3.42;;;1.55;;
45784;SDS011;31489;51.404;5.474;2022-07-22T07:38:50;3.40;;;1.58;;
45784;SDS011;31489;51.404;5.474;2022-07-22T07:41:16;3.13;;;1.48;;
45784;SDS011;31489;51.404;5.474;2022-07-22T07:43:42;3.97;;;1.63;;
45784;SDS011;31489;51.404;5.474;2022-07-22T07:46:08;5.07;;;1.45;;
45784;SDS011;31489;51.404;5.474;2022-07-22T07:48:34;5.38;;;2.10;;
45784;SDS011;31489;51.404;5.474;2022-07-22T07:51:00;5.07;;;1.90;;
45784;SDS011;31489;51.404;5.474;2022-07-22T07:53:26;5.72;;;2.00;;
45784;SDS011;31489;51.404;5.474;2022-07-22T07:55:52;3.70;;;2.13;;
45784;SDS011;31489;51.404;5.474;2022-07-22T07:58:18;4.13;;;2.08;;
45784;SDS011;31489;51.404;5.474;2022-07-22T08:00:44;2.58;;;1.92;;
45784;SDS011;31489;51.404;5.474;2022-07-22T08:03:11;2.60;;;1.48;;
45784;SDS011;31489;51.404;5.474;2022-07-22T08:05:37;5.97;;;1.73;;
45784;SDS011;31489;51.404;5.474;2022-07-22T08:08:04;3.80;;;1.98;;
45784;SDS011;31489;51.404;5.474;2022-07-22T08:10:31;5.25;;;1.52;;
45784;SDS011;31489;51.404;5.474;2022-07-22T08:12:57;2.60;;;1.48;;
45784;SDS011;31489;51.404;5.474;2022-07-22T08:15:24;3.55;;;1.65;;
45784;SDS011;31489;51.404;5.474;2022-07-22T08:17:51;5.78;;;1.25;;
45784;SDS011;31489;51.404;5.474;2022-07-22T08:20:17;5.45;;;1.33;;
45784;SDS011;31489;51.404;5.474;2022-07-22T08:22:43;4.32;;;1.40;;
45784;SDS011;31489;51.404;5.474;2022-07-22T08:25:09;4.32;;;1.70;;
45784;SDS011;31489;51.404;5.474;2022-07-22T08:27:35;3.55;;;1.60;;
45784;SDS011;31489;51.404;5.474;2022-07-22T08:30:02;2.88;;;1.50;;
45784;SDS011;31489;51.404;5.474;2022-07-22T08:32:30;2.92;;;1.48;;
45784;SDS011;31489;51.404;5.474;2022-07-22T08:34:57;6.25;;;1.55;;
45784;SDS011;31489;51.404;5.474;2022-07-22T08:37:25;4.25;;;1.70;;
45784;SDS011;31489;51.404;5.474;2022-07-22T08:39:51;3.17;;;1.40;;
45784;SDS011;31489;51.404;5.474;2022-07-22T08:42:19;3.22;;;1.58;;
45784;SDS011;31489;51.404;5.474;2022-07-22T08:44:46;3.10;;;1.73;;
45784;SDS011;31489;51.404;5.474;2022-07-22T08:47:12;3.58;;;1.70;;
45784;SDS011;31489;51.404;5.474;2022-07-22T08:49:38;3.60;;;1.50;;
45784;SDS011;31489;51.404;5.474;2022-07-22T08:52:04;2.40;;;1.40;;
45784;SDS011;31489;51.404;5.474;2022-07-22T08:54:30;6.15;;;1.70;;
45784;SDS011;31489;51.404;5.474;2022-07-22T08:56:56;8.75;;;1.70;;
45784;SDS011;31489;51.404;5.474;2022-07-22T08:59:21;19.92;;;2.33;;
45784;SDS011;31489;51.404;5.474;2022-07-22T09:02:06;40.30;;;3.22;;
45784;SDS011;31489;51.404;5.474;2022-07-22T09:04:50;6.93;;;1.75;;
45784;SDS011;31489;51.404;5.474;2022-07-22T09:10:19;5.03;;;1.40;;
45784;SDS011;31489;51.404;5.474;2022-07-22T09:15:29;3.67;;;1.40;;
45784;SDS011;31489;51.404;5.474;2022-07-22T09:18:01;2.42;;;1.58;;
45784;SDS011;31489;51.404;5.474;2022-07-22T09:20:28;2.70;;;1.45;;
45784;SDS011;31489;51.404;5.474;2022-07-22T09:22:55;3.47;;;1.70;;
45784;SDS011;31489;51.404;5.474;2022-07-22T09:25:25;3.78;;;1.70;;
45784;SDS011;31489;51.404;5.474;2022-07-22T09:28:18;3.65;;;1.80;;
45784;SDS011;31489;51.404;5.474;2022-07-22T09:33:20;2.92;;;1.50;;
45784;SDS011;31489;51.404;5.474;2022-07-22T09:35:47;2.50;;;1.42;;
45784;SDS011;31489;51.404;5.474;2022-07-22T09:38:14;4.25;;;1.65;;
45784;SDS011;31489;51.404;5.474;2022-07-22T09:40:42;3.55;;;1.50;;
45784;SDS011;31489;51.404;5.474;2022-07-22T09:43:11;2.55;;;1.40;;
45784;SDS011;31489;51.404;5.474;2022-07-22T09:45:47;6.60;;;1.75;;
45784;SDS011;31489;51.404;5.474;2022-07-22T09:48:18;3.00;;;1.65;;
45784;SDS011;31489;51.404;5.474;2022-07-22T09:50:46;4.80;;;1.90;;
45784;SDS011;31489;51.404;5.474;2022-07-22T09:53:20;3.00;;;1.80;;
45784;SDS011;31489;51.404;5.474;2022-07-22T09:55:47;5.13;;;1.80;;
45784;SDS011;31489;51.404;5.474;2022-07-22T09:58:14;4.53;;;1.55;;
45784;SDS011;31489;51.404;5.474;2022-07-22T10:00:40;4.53;;;2.00;;
45784;SDS011;31489;51.404;5.474;2022-07-22T10:03:08;2.25;;;1.50;;
45784;SDS011;31489;51.404;5.474;2022-07-22T10:05:38;3.10;;;1.50;;
45784;SDS011;31489;51.404;5.474;2022-07-22T10:08:06;5.13;;;1.90;;
45784;SDS011;31489;51.404;5.474;2022-07-22T10:10:33;5.03;;;1.98;;
45784;SDS011;31489;51.404;5.474;2022-07-22T10:13:00;3.13;;;1.50;;
45784;SDS011;31489;51.404;5.474;2022-07-22T10:15:28;4.13;;;1.95;;
45784;SDS011;31489;51.404;5.474;2022-07-22T10:17:56;4.18;;;1.70;;
45784;SDS011;31489;51.404;5.474;2022-07-22T10:20:25;3.17;;;2.00;;
45784;SDS011;31489;51.404;5.474;2022-07-22T10:22:54;5.72;;;1.98;;
45784;SDS011;31489;51.404;5.474;2022-07-22T10:25:32;4.70;;;1.70;;
45784;SDS011;31489;51.404;5.474;2022-07-22T10:28:25;2.97;;;1.83;;
45784;SDS011;31489;51.404;5.474;2022-07-22T10:33:50;3.63;;;1.77;;
45784;SDS011;31489;51.404;5.474;2022-07-22T10:36:33;3.92;;;1.52;;
45784;SDS011;31489;51.404;5.474;2022-07-22T10:39:02;4.78;;;1.63;;
45784;SDS011;31489;51.404;5.474;2022-07-22T10:41:33;2.65;;;1.50;;
45784;SDS011;31489;51.404;5.474;2022-07-22T10:44:03;5.57;;;1.70;;
45784;SDS011;31489;51.404;5.474;2022-07-22T10:46:49;4.13;;;1.88;;
45784;SDS011;31489;51.404;5.474;2022-07-22T10:49:19;3.30;;;1.50;;
45784;SDS011;31489;51.404;5.474;2022-07-22T10:52:11;6.38;;;1.70;;
45784;SDS011;31489;51.404;5.474;2022-07-22T10:57:42;4.53;;;2.00;;
45784;SDS011;31489;51.404;5.474;2022-07-22T11:00:08;3.40;;;1.42;;
45784;SDS011;31489;51.404;5.474;2022-07-22T11:02:34;2.13;;;1.63;;
45784;SDS011;31489;51.404;5.474;2022-07-22T11:05:02;3.33;;;1.90;;
45784;SDS011;31489;51.404;5.474;2022-07-22T11:07:28;2.08;;;1.23;;
45784;SDS011;31489;51.404;5.474;2022-07-22T11:10:17;4.13;;;1.92;;
45784;SDS011;31489;51.404;5.474;2022-07-22T11:12:44;2.63;;;1.58;;
45784;SDS011;31489;51.404;5.474;2022-07-22T11:15:11;3.40;;;1.55;;
45784;SDS011;31489;51.404;5.474;2022-07-22T11:17:37;3.58;;;1.60;;
45784;SDS011;31489;51.404;5.474;2022-07-22T11:20:05;2.92;;;1.70;;
45784;SDS011;31489;51.404;5.474;2022-07-22T11:22:33;3.00;;;1.73;;
45784;SDS011;31489;51.404;5.474;2022-07-22T11:25:03;5.30;;;1.73;;
45784;SDS011;31489;51.404;5.474;2022-07-22T11:27:33;3.17;;;1.98;;
45784;SDS011;31489;51.404;5.474;2022-07-22T11:29:59;3.72;;;1.52;;
45784;SDS011;31489;51.404;5.474;2022-07-22T11:32:25;3.30;;;1.70;;
45784;SDS011;31489;51.404;5.474;2022-07-22T11:34:55;4.82;;;2.17;;
45784;SDS011;31489;51.404;5.474;2022-07-22T11:37:22;10.55;;;2.67;;
45784;SDS011;31489;51.404;5.474;2022-07-22T11:39:49;4.32;;;1.63;;
45784;SDS011;31489;51.404;5.474;2022-07-22T11:42:15;3.50;;;2.10;;
45784;SDS011;31489;51.404;5.474;2022-07-22T11:44:42;4.28;;;1.75;;
45784;SDS011;31489;51.404;5.474;2022-07-22T11:47:08;3.15;;;1.63;;
45784;SDS011;31489;51.404;5.474;2022-07-22T11:49:35;5.05;;;1.77;;
45784;SDS011;31489;51.404;5.474;2022-07-22T11:52:03;4.57;;;1.80;;
45784;SDS011;31489;51.404;5.474;2022-07-22T11:54:32;2.50;;;1.60;;
45784;SDS011;31489;51.404;5.474;2022-07-22T11:56:58;5.70;;;2.17;;
45784;SDS011;31489;51.404;5.474;2022-07-22T11:59:24;5.75;;;2.40;;
45784;SDS011;31489;51.404;5.474;2022-07-22T12:01:50;4.15;;;2.03;;
45784;SDS011;31489;51.404;5.474;2022-07-22T12:04:17;4.53;;;2.17;;
45784;SDS011;31489;51.404;5.474;2022-07-22T12:06:47;3.72;;;2.10;;
45784;SDS011;31489;51.404;5.474;2022-07-22T12:09:15;3.97;;;1.95;;
45784;SDS011;31489;51.404;5.474;2022-07-22T12:11:47;4.18;;;1.80;;
45784;SDS011;31489;51.404;5.474;2022-07-22T12:14:18;5.78;;;2.35;;
45784;SDS011;31489;51.404;5.474;2022-07-22T12:17:01;4.13;;;2.03;;
45784;SDS011;31489;51.404;5.474;2022-07-22T12:19:33;5.22;;;2.35;;
45784;SDS011;31489;51.404;5.474;2022-07-22T12:22:04;4.88;;;2.10;;
45784;SDS011;31489;51.404;5.474;2022-07-22T12:24:40;5.07;;;1.80;;
45784;SDS011;31489;51.404;5.474;2022-07-22T12:27:09;3.83;;;2.20;;
45784;SDS011;31489;51.404;5.474;2022-07-22T12:37:22;5.00;;;2.00;;
45784;SDS011;31489;51.404;5.474;2022-07-22T12:42:30;5.93;;;2.33;;
45784;SDS011;31489;51.404;5.474;2022-07-22T12:47:38;3.50;;;2.03;;
45784;SDS011;31489;51.404;5.474;2022-07-22T12:53:04;2.60;;;1.80;;
45784;SDS011;31489;51.404;5.474;2022-07-22T12:56:16;3.80;;;2.15;;
45784;SDS011;31489;51.404;5.474;2022-07-22T12:58:20;5.07;;;2.30;;
45784;SDS011;31489;51.404;5.474;2022-07-22T13:00:47;4.18;;;2.28;;
45784;SDS011;31489;51.404;5.474;2022-07-22T13:03:18;3.03;;;2.15;;
45784;SDS011;31489;51.404;5.474;2022-07-22T13:05:48;3.58;;;2.10;;
45784;SDS011;31489;51.404;5.474;2022-07-22T13:08:15;4.60;;;2.35;;
45784;SDS011;31489;51.404;5.474;2022-07-22T13:10:42;4.63;;;2.78;;
45784;SDS011;31489;51.404;5.474;2022-07-22T13:13:08;3.25;;;2.20;;
45784;SDS011;31489;51.404;5.474;2022-07-22T13:15:34;5.05;;;2.85;;
45784;SDS011;31489;51.404;5.474;2022-07-22T13:18:00;5.30;;;2.83;;
45784;SDS011;31489;51.404;5.474;2022-07-22T13:20:26;3.80;;;2.35;;
45784;SDS011;31489;51.404;5.474;2022-07-22T13:22:51;4.28;;;2.60;;
45784;SDS011;31489;51.404;5.474;2022-07-22T13:25:17;4.40;;;2.42;;
45784;SDS011;31489;51.404;5.474;2022-07-22T13:27:43;4.88;;;2.70;;
45784;SDS011;31489;51.404;5.474;2022-07-22T13:30:09;4.75;;;2.67;;
45784;SDS011;31489;51.404;5.474;2022-07-22T13:32:35;3.70;;;2.50;;
45784;SDS011;31489;51.404;5.474;2022-07-22T13:35:01;4.13;;;2.25;;
45784;SDS011;31489;51.404;5.474;2022-07-22T13:37:27;5.07;;;2.70;;
45784;SDS011;31489;51.404;5.474;2022-07-22T13:39:53;3.83;;;2.47;;
45784;SDS011;31489;51.404;5.474;2022-07-22T13:42:19;4.60;;;2.55;;
45784;SDS011;31489;51.404;5.474;2022-07-22T13:44:45;5.70;;;2.67;;
45784;SDS011;31489;51.404;5.474;2022-07-22T13:47:12;4.15;;;2.47;;
45784;SDS011;31489;51.404;5.474;2022-07-22T13:49:39;4.32;;;2.40;;
45784;SDS011;31489;51.404;5.474;2022-07-22T13:52:05;7.90;;;2.47;;
45784;SDS011;31489;51.404;5.474;2022-07-22T13:54:31;4.32;;;2.70;;
45784;SDS011;31489;51.404;5.474;2022-07-22T13:56:58;7.35;;;2.38;;
45784;SDS011;31489;51.404;5.474;2022-07-22T13:59:25;5.15;;;3.10;;
45784;SDS011;31489;51.404;5.474;2022-07-22T14:01:51;6.65;;;3.22;;
45784;SDS011;31489;51.404;5.474;2022-07-22T14:04:19;6.20;;;2.83;;
45784;SDS011;31489;51.404;5.474;2022-07-22T14:06:45;4.45;;;2.55;;
45784;SDS011;31489;51.404;5.474;2022-07-22T14:09:11;5.53;;;3.33;;
45784;SDS011;31489;51.404;5.474;2022-07-22T14:11:40;3.88;;;2.92;;
45784;SDS011;31489;51.404;5.474;2022-07-22T14:14:06;5.97;;;3.08;;
45784;SDS011;31489;51.404;5.474;2022-07-22T14:16:32;6.55;;;3.35;;
45784;SDS011;31489;51.404;5.474;2022-07-22T14:18:58;3.42;;;2.53;;
45784;SDS011;31489;51.404;5.474;2022-07-22T14:21:29;7.10;;;2.80;;
45784;SDS011;31489;51.404;5.474;2022-07-22T14:23:54;4.95;;;2.90;;
45784;SDS011;31489;51.404;5.474;2022-07-22T14:26:20;4.28;;;2.72;;
45784;SDS011;31489;51.404;5.474;2022-07-22T14:28:48;6.70;;;3.50;;
45784;SDS011;31489;51.404;5.474;2022-07-22T14:31:14;3.45;;;2.70;;
45784;SDS011;31489;51.404;5.474;2022-07-22T14:33:40;6.15;;;3.72;;
45784;SDS011;31489;51.404;5.474;2022-07-22T14:36:06;5.38;;;3.30;;
45784;SDS011;31489;51.404;5.474;2022-07-22T14:38:33;4.70;;;3.13;;
45784;SDS011;31489;51.404;5.474;2022-07-22T14:40:58;4.38;;;3.20;;
45784;SDS011;31489;51.404;5.474;2022-07-22T14:43:24;3.78;;;3.08;;
45784;SDS011;31489;51.404;5.474;2022-07-22T14:45:50;5.90;;;2.83;;
45784;SDS011;31489;51.404;5.474;2022-07-22T14:48:16;4.35;;;3.40;;
45784;SDS011;31489;51.404;5.474;2022-07-22T14:50:41;3.05;;;2.67;;
45784;SDS011;31489;51.404;5.474;2022-07-22T14:53:07;5.40;;;3.00;;
45784;SDS011;31489;51.404;5.474;2022-07-22T14:55:33;12.52;;;3.15;;
45784;SDS011;31489;51.404;5.474;2022-07-22T14:57:59;5.90;;;3.80;;
45784;SDS011;31489;51.404;5.474;2022-07-22T15:00:24;5.15;;;2.85;;
45784;SDS011;31489;51.404;5.474;2022-07-22T15:02:53;3.80;;;2.60;;
45784;SDS011;31489;51.404;5.474;2022-07-22T15:05:19;7.93;;;3.70;;
45784;SDS011;31489;51.404;5.474;2022-07-22T15:07:44;5.55;;;3.42;;
45784;SDS011;31489;51.404;5.474;2022-07-22T15:10:10;5.68;;;3.03;;
45784;SDS011;31489;51.404;5.474;2022-07-22T15:12:35;6.32;;;3.20;;
45784;SDS011;31489;51.404;5.474;2022-07-22T15:15:02;5.43;;;3.70;;